Time;durP1;ratioP1;P1;durP2;ratioP2;P2;SDS_P1;SDS_P2;PMS_P1;PMS_P2;Temp;Humidity;BMP_temperature;BMP_pressure;BME280_temperature;BME280_humidity;BME280_pressure;Samples;Min_cycle;Max_cycle;Signal;HPM_P1;HPM_P2
2021/11/03 00:00:04;;;;;;;0.60;0.60;;;5.70;99.90;;;;;;5114863;28;20197;-77
2021/11/03 00:02:31;;;;;;;0.50;0.40;;;5.80;99.90;;;;;;5114784;28;20232;-78
2021/11/03 00:04:58;;;;;;;0.50;0.40;;;5.70;99.90;;;;;;5114609;28;20240;-77
2021/11/03 00:07:28;;;;;;;0.50;0.40;;;5.70;99.90;;;;;;5114396;28;20196;-77
2021/11/03 00:09:57;;;;;;;0.50;0.40;;;5.60;99.90;;;;;;5113984;28;20182;-77
2021/11/03 00:12:26;;;;;;;0.50;0.40;;;5.60;99.90;;;;;;5114164;28;20220;-77
2021/11/03 00:14:53;;;;;;;0.50;0.40;;;5.50;99.90;;;;;;5114912;28;20258;-77
2021/11/03 00:17:19;;;;;;;0.50;0.40;;;5.60;99.90;;;;;;5113195;28;20197;-77
2021/11/03 00:19:46;;;;;;;0.50;0.40;;;5.60;99.90;;;;;;5114795;28;20195;-77
2021/11/03 00:22:14;;;;;;;0.50;0.40;;;5.60;99.90;;;;;;5114048;28;20209;-77
2021/11/03 00:24:42;;;;;;;0.88;0.88;;;5.50;99.90;;;;;;5114541;28;20213;-77
2021/11/03 00:27:09;;;;;;;1.45;1.45;;;5.50;99.90;;;;;;5114403;28;20196;-77
2021/11/03 00:29:37;;;;;;;0.50;0.40;;;5.50;99.90;;;;;;5114168;28;20690;-78
2021/11/03 00:32:04;;;;;;;0.50;0.40;;;5.60;99.90;;;;;;5113289;28;20224;-77
2021/11/03 00:34:31;;;;;;;0.50;0.40;;;5.60;99.90;;;;;;5114609;27;20193;-75
2021/11/03 00:36:58;;;;;;;0.50;0.40;;;5.60;99.90;;;;;;5114235;28;20197;-77
2021/11/03 00:39:26;;;;;;;0.50;0.40;;;5.60;99.90;;;;;;5113842;27;20200;-77
2021/11/03 00:41:53;;;;;;;2.65;1.73;;;5.50;99.90;;;;;;5113681;27;20238;-77
2021/11/03 00:44:20;;;;;;;0.50;0.40;;;5.60;99.90;;;;;;5113841;28;20212;-77
2021/11/03 00:46:48;;;;;;;0.50;0.40;;;5.60;99.90;;;;;;5114194;28;20189;-77
2021/11/03 00:49:15;;;;;;;0.50;0.40;;;5.60;99.90;;;;;;5114349;28;20193;-77
2021/11/03 00:51:43;;;;;;;0.50;0.50;;;5.50;99.90;;;;;;5112935;28;20189;-77
2021/11/03 00:54:10;;;;;;;1.52;1.42;;;5.50;99.90;;;;;;5114007;28;20193;-77
2021/11/03 00:56:37;;;;;;;1.80;0.55;;;5.50;99.90;;;;;;5113881;28;20668;-77
2021/11/03 00:59:04;;;;;;;1.05;1.05;;;5.60;99.90;;;;;;5113811;28;20284;-77
2021/11/03 01:01:32;;;;;;;1.02;0.60;;;5.60;99.90;;;;;;5113385;27;20204;-77
2021/11/03 01:04:00;;;;;;;0.50;0.40;;;5.60;99.90;;;;;;5113686;28;20223;-77
2021/11/03 01:06:27;;;;;;;0.50;0.40;;;5.60;99.90;;;;;;5113546;28;20197;-77
2021/11/03 01:08:54;;;;;;;0.50;0.40;;;5.60;99.90;;;;;;5113434;28;20189;-77
2021/11/03 01:11:21;;;;;;;0.50;0.40;;;5.60;99.90;;;;;;5113432;28;20216;-75
2021/11/03 01:13:48;;;;;;;0.50;0.40;;;5.50;99.90;;;;;;5113632;28;20213;-77
2021/11/03 01:16:15;;;;;;;0.50;0.40;;;5.60;99.90;;;;;;5113183;28;20649;-77
2021/11/03 01:18:42;;;;;;;2.97;2.78;;;5.50;99.90;;;;;;5112851;28;20198;-77
2021/11/03 01:21:10;;;;;;;0.93;0.93;;;5.50;99.90;;;;;;5113372;28;20578;-77
2021/11/03 01:23:37;;;;;;;0.50;0.40;;;5.60;99.90;;;;;;5112917;28;20578;-77
2021/11/03 01:26:04;;;;;;;0.50;0.50;;;5.60;99.90;;;;;;5113129;28;20189;-76
2021/11/03 01:28:30;;;;;;;0.50;0.40;;;5.60;99.90;;;;;;5112844;28;20193;-77
2021/11/03 01:30:57;;;;;;;1.35;1.35;;;5.60;99.90;;;;;;5112956;28;20201;-77
2021/11/03 01:33:24;;;;;;;0.50;0.40;;;5.50;99.90;;;;;;5113164;28;20219;-76
2021/11/03 01:35:51;;;;;;;1.58;1.45;;;5.50;99.90;;;;;;5112789;28;20196;-77
2021/11/03 01:38:19;;;;;;;0.50;0.40;;;5.50;99.90;;;;;;5112508;28;20221;-77
2021/11/03 01:40:49;;;;;;;0.50;0.40;;;5.50;99.90;;;;;;5112912;28;20536;-77
2021/11/03 01:43:32;;;;;;;0.50;0.50;;;5.40;99.90;;;;;;5112110;28;20217;-77
2021/11/03 01:46:18;;;;;;;1.90;1.80;;;5.40;99.90;;;;;;5112774;28;20222;-77
2021/11/03 01:48:45;;;;;;;0.50;0.40;;;5.50;99.90;;;;;;5112930;28;20185;-76
2021/11/03 01:51:17;;;;;;;0.93;0.93;;;5.40;99.90;;;;;;5112249;28;20665;-77
2021/11/03 01:53:45;;;;;;;0.50;0.40;;;5.40;99.90;;;;;;5112817;28;20209;-77
2021/11/03 01:56:12;;;;;;;0.50;0.40;;;5.50;99.90;;;;;;5112703;28;20189;-77
2021/11/03 01:58:44;;;;;;;0.50;0.40;;;5.40;99.90;;;;;;5112889;28;20551;-76
2021/11/03 02:01:11;;;;;;;0.50;0.50;;;5.40;99.90;;;;;;5111474;28;20704;-77
2021/11/03 02:03:42;;;;;;;0.50;0.40;;;5.40;99.90;;;;;;5112393;28;20213;-76
2021/11/03 02:06:12;;;;;;;0.50;0.50;;;5.40;99.90;;;;;;5112280;28;20177;-77
2021/11/03 02:08:42;;;;;;;0.75;0.75;;;5.40;99.90;;;;;;5112731;28;20192;-77
2021/11/03 02:11:12;;;;;;;0.50;0.40;;;5.40;99.90;;;;;;5111819;28;20192;-78
2021/11/03 02:13:40;;;;;;;1.15;0.95;;;5.30;99.90;;;;;;5112078;28;20216;-77
2021/11/03 02:16:09;;;;;;;0.50;0.40;;;5.30;99.90;;;;;;5112509;28;20196;-77
2021/11/03 02:18:37;;;;;;;0.50;0.40;;;5.40;99.90;;;;;;5111782;28;20198;-73
2021/11/03 02:21:05;;;;;;;0.50;0.40;;;5.30;99.90;;;;;;5112069;28;20566;-74
2021/11/03 02:23:45;;;;;;;0.50;0.40;;;5.30;99.90;;;;;;5111721;28;20258;-77
2021/11/03 02:26:18;;;;;;;2.03;0.82;;;5.30;99.90;;;;;;5112146;28;20188;-74
2021/11/03 02:28:47;;;;;;;1.73;1.63;;;5.30;99.90;;;;;;5111837;28;20192;-75
2021/11/03 02:31:28;;;;;;;4.32;4.00;;;5.30;99.90;;;;;;5111947;28;20196;-77
2021/11/03 02:33:55;;;;;;;0.50;0.40;;;5.40;99.90;;;;;;5111971;28;20189;-77
2021/11/03 02:36:22;;;;;;;0.50;0.40;;;5.40;99.90;;;;;;5111435;28;20677;-77
2021/11/03 02:38:49;;;;;;;0.50;0.40;;;5.40;99.90;;;;;;5111709;28;20204;-77
2021/11/03 02:41:21;;;;;;;0.50;0.40;;;5.40;99.90;;;;;;5111568;28;20185;-77
2021/11/03 02:43:55;;;;;;;0.50;0.40;;;5.30;99.90;;;;;;5111726;28;20227;-77
2021/11/03 02:46:22;;;;;;;1.25;1.25;;;5.30;99.90;;;;;;5111741;28;20197;-77
2021/11/03 02:48:49;;;;;;;0.50;0.40;;;5.20;99.90;;;;;;5111974;28;20200;-77
2021/11/03 02:51:18;;;;;;;0.50;0.40;;;5.10;99.90;;;;;;5111513;28;20192;-77
2021/11/03 02:53:47;;;;;;;0.50;0.40;;;5.10;99.90;;;;;;5112012;28;20239;-77
2021/11/03 02:56:16;;;;;;;0.50;0.40;;;5.00;99.90;;;;;;5115079;28;20196;-77
2021/11/03 02:58:45;;;;;;;0.50;0.40;;;5.00;99.90;;;;;;5116123;28;20575;-77
2021/11/03 03:01:16;;;;;;;0.50;0.40;;;5.10;99.90;;;;;;5115294;28;20193;-78
2021/11/03 03:03:45;;;;;;;0.50;0.40;;;5.00;99.90;;;;;;5115823;28;20213;-77
2021/11/03 03:06:17;;;;;;;0.50;0.40;;;5.00;99.90;;;;;;5116053;27;20273;-77
2021/11/03 03:08:44;;;;;;;0.50;0.40;;;4.90;99.90;;;;;;5115926;28;20200;-75
2021/11/03 03:11:11;;;;;;;0.50;0.40;;;4.90;99.90;;;;;;5115697;28;20213;-77
2021/11/03 03:13:39;;;;;;;0.50;0.40;;;4.80;99.90;;;;;;5115152;28;20219;-77
2021/11/03 03:16:07;;;;;;;0.50;0.40;;;4.70;99.90;;;;;;5116011;28;20208;-77
2021/11/03 03:18:34;;;;;;;0.50;0.40;;;4.60;99.90;;;;;;5114891;28;20207;-77
2021/11/03 03:21:00;;;;;;;0.50;0.40;;;4.60;99.90;;;;;;5115503;28;20201;-77
2021/11/03 03:23:27;;;;;;;0.50;0.40;;;4.60;99.90;;;;;;5114991;27;20212;-77
2021/11/03 03:25:57;;;;;;;0.50;0.40;;;4.50;99.90;;;;;;5115727;28;20315;-78
2021/11/03 03:28:24;;;;;;;0.50;0.40;;;4.50;99.90;;;;;;5115351;28;20182;-77
2021/11/03 03:30:51;;;;;;;0.50;0.40;;;4.50;99.90;;;;;;5115077;28;20196;-77
2021/11/03 03:33:19;;;;;;;0.50;0.40;;;4.50;99.90;;;;;;5115189;27;20646;-77
2021/11/03 03:35:46;;;;;;;0.50;0.40;;;4.60;99.90;;;;;;5115366;28;20663;-77
2021/11/03 03:38:13;;;;;;;0.50;0.40;;;4.50;99.90;;;;;;5114746;28;20682;-78
2021/11/03 03:40:40;;;;;;;0.50;0.50;;;4.60;99.90;;;;;;5115241;28;20196;-73
2021/11/03 03:43:07;;;;;;;3.45;1.40;;;4.70;99.90;;;;;;5114827;28;20318;-77
2021/11/03 03:45:34;;;;;;;0.50;0.40;;;4.80;99.90;;;;;;5115138;28;20224;-76
2021/11/03 03:48:01;;;;;;;0.50;0.40;;;4.80;99.90;;;;;;5115021;28;20193;-77
2021/11/03 03:50:29;;;;;;;0.50;0.40;;;4.80;99.90;;;;;;5114464;28;20193;-77
2021/11/03 03:52:55;;;;;;;0.50;0.40;;;4.80;99.90;;;;;;5114879;28;20217;-77
2021/11/03 03:55:22;;;;;;;0.75;0.75;;;4.80;99.90;;;;;;5115261;28;20220;-76
2021/11/03 03:57:49;;;;;;;1.23;1.13;;;4.90;99.90;;;;;;5114860;28;20197;-77
2021/11/03 04:00:19;;;;;;;0.50;0.40;;;5.00;99.90;;;;;;5114434;28;20193;-77
2021/11/03 04:05:20;;;;;;;0.50;0.50;;;5.20;99.90;;;;;;5054693;28;20211;-82
2021/11/03 04:07:49;;;;;;;0.50;0.40;;;5.20;99.90;;;;;;5060288;28;20200;-83
2021/11/03 04:10:16;;;;;;;0.50;0.40;;;5.20;99.90;;;;;;5060710;28;20195;-81
2021/11/03 04:12:44;;;;;;;0.50;0.40;;;5.20;99.90;;;;;;5060995;28;20195;-78
2021/11/03 04:15:12;;;;;;;0.50;0.45;;;5.20;99.90;;;;;;5061122;28;20198;-82
2021/11/03 04:17:39;;;;;;;0.50;0.40;;;5.20;99.90;;;;;;5061241;28;20626;-82
2021/11/03 04:20:08;;;;;;;0.50;0.40;;;5.20;99.90;;;;;;5061524;28;20198;-80
2021/11/03 04:22:35;;;;;;;0.50;0.40;;;5.20;99.90;;;;;;5060139;28;20196;-82
2021/11/03 04:25:04;;;;;;;0.50;0.40;;;5.20;99.90;;;;;;5059125;28;20225;-81
2021/11/03 04:27:31;;;;;;;0.50;0.40;;;5.20;99.90;;;;;;5059182;28;20205;-82
2021/11/03 04:29:58;;;;;;;0.50;0.40;;;5.20;99.90;;;;;;5059226;28;20195;-82
2021/11/03 04:32:25;;;;;;;0.50;0.40;;;5.30;99.90;;;;;;5061342;28;20201;-80
2021/11/03 04:34:51;;;;;;;0.50;0.40;;;5.30;99.90;;;;;;5060055;28;20226;-82
2021/11/03 04:37:18;;;;;;;0.68;0.68;;;5.30;99.90;;;;;;5060975;28;20200;-84
2021/11/03 04:39:45;;;;;;;1.08;1.05;;;5.30;99.90;;;;;;5058362;28;20215;-82
2021/11/03 04:42:13;;;;;;;0.50;0.40;;;5.50;99.90;;;;;;5058976;28;20192;-82
2021/11/03 04:44:40;;;;;;;1.20;1.20;;;5.50;99.90;;;;;;5058909;28;20226;-82
2021/11/03 04:47:08;;;;;;;0.50;0.40;;;5.60;99.90;;;;;;5061473;28;20190;-82
2021/11/03 04:49:35;;;;;;;0.50;0.40;;;5.60;99.90;;;;;;5059103;28;20751;-83
2021/11/03 04:52:02;;;;;;;0.50;0.40;;;5.60;99.90;;;;;;5058779;28;20217;-81
2021/11/03 04:54:29;;;;;;;0.50;0.40;;;5.60;99.90;;;;;;5059269;28;20211;-82
2021/11/03 04:56:56;;;;;;;0.50;0.40;;;5.60;99.90;;;;;;5061018;28;20206;-81
2021/11/03 04:59:24;;;;;;;0.50;0.40;;;5.70;99.90;;;;;;5077929;28;20246;-82
2021/11/03 05:01:51;;;;;;;0.50;0.40;;;5.70;99.90;;;;;;5064501;28;20546;-84
2021/11/03 05:04:18;;;;;;;0.50;0.40;;;5.80;99.90;;;;;;5061675;28;20227;-84
2021/11/03 05:06:48;;;;;;;0.50;0.40;;;5.80;99.90;;;;;;5061068;28;20199;-82
2021/11/03 05:09:15;;;;;;;1.10;1.10;;;5.80;99.90;;;;;;5057884;28;20544;-81
2021/11/03 05:11:42;;;;;;;0.50;0.40;;;5.80;99.90;;;;;;5061444;28;20293;-81
2021/11/03 05:14:09;;;;;;;0.50;0.50;;;5.80;99.90;;;;;;5061849;28;20291;-84
2021/11/03 05:16:38;;;;;;;0.50;0.40;;;5.90;99.90;;;;;;5060560;28;20195;-83
2021/11/03 05:19:05;;;;;;;2.15;1.45;;;5.90;99.90;;;;;;5058151;28;20959;-83
2021/11/03 05:21:37;;;;;;;0.50;0.40;;;6.00;99.90;;;;;;5058261;28;20198;-81
2021/11/03 05:24:05;;;;;;;0.50;0.40;;;5.90;99.90;;;;;;5039970;28;20261;-82
2021/11/03 05:26:32;;;;;;;0.50;0.40;;;5.80;99.90;;;;;;5060385;28;20217;-83
2021/11/03 05:29:02;;;;;;;0.50;0.40;;;5.80;99.90;;;;;;5060803;28;20202;-83
2021/11/03 05:31:29;;;;;;;0.50;0.40;;;5.80;99.90;;;;;;5059474;28;20195;-80
2021/11/03 05:33:57;;;;;;;0.50;0.40;;;5.70;99.90;;;;;;5058472;28;20214;-80
2021/11/03 05:36:26;;;;;;;0.50;0.40;;;5.70;99.90;;;;;;5059904;28;20192;-81
2021/11/03 05:38:53;;;;;;;0.50;0.40;;;5.70;99.90;;;;;;5058954;28;20203;-80
2021/11/03 05:41:20;;;;;;;0.50;0.40;;;5.70;99.90;;;;;;5060112;28;20203;-79
2021/11/03 05:43:47;;;;;;;0.50;0.40;;;5.70;99.90;;;;;;5062633;28;20223;-79
2021/11/03 05:46:15;;;;;;;0.50;0.40;;;5.60;99.90;;;;;;5061872;28;20219;-80
2021/11/03 05:48:45;;;;;;;0.50;0.40;;;5.50;99.90;;;;;;5063922;28;20213;-79
2021/11/03 05:51:13;;;;;;;0.50;0.40;;;5.50;99.90;;;;;;5068971;28;20200;-79
2021/11/03 05:53:41;;;;;;;0.50;0.40;;;5.50;99.90;;;;;;5065252;28;20224;-79
2021/11/03 05:56:10;;;;;;;0.50;0.40;;;5.40;99.90;;;;;;5064552;28;20188;-79
2021/11/03 05:58:37;;;;;;;0.50;0.40;;;5.40;99.90;;;;;;5063716;28;20214;-79
2021/11/03 06:01:06;;;;;;;0.50;0.40;;;5.40;99.90;;;;;;5063528;28;20701;-82
2021/11/03 06:03:33;;;;;;;0.50;0.40;;;5.40;99.90;;;;;;5067126;28;20234;-81
2021/11/03 06:06:00;;;;;;;1.35;1.25;;;5.40;99.90;;;;;;5067951;28;20287;-82
2021/11/03 06:08:28;;;;;;;0.50;0.40;;;5.40;99.90;;;;;;5068134;28;20206;-81
2021/11/03 06:10:57;;;;;;;0.50;0.40;;;5.40;99.90;;;;;;5068053;28;20199;-82
2021/11/03 06:13:24;;;;;;;0.50;0.40;;;5.40;99.90;;;;;;5066667;28;20218;-81
2021/11/03 06:15:51;;;;;;;0.50;0.40;;;5.40;99.90;;;;;;5064380;28;20200;-80
2021/11/03 06:18:18;;;;;;;0.50;0.40;;;5.50;99.90;;;;;;5059416;28;20203;-82
2021/11/03 06:20:45;;;;;;;0.50;0.40;;;5.40;99.90;;;;;;5059021;28;20194;-82
2021/11/03 06:23:12;;;;;;;0.50;0.40;;;5.50;99.90;;;;;;5060431;28;20596;-82
2021/11/03 06:25:40;;;;;;;0.50;0.40;;;5.40;99.90;;;;;;5058462;28;20226;-80
2021/11/03 06:28:07;;;;;;;0.50;0.40;;;5.40;99.90;;;;;;5059000;28;20281;-80
2021/11/03 06:30:37;;;;;;;0.50;0.40;;;5.30;99.90;;;;;;5058615;28;20195;-82
2021/11/03 06:33:04;;;;;;;0.50;0.40;;;5.30;99.90;;;;;;5059662;28;20247;-82
2021/11/03 06:35:33;;;;;;;0.50;0.40;;;5.30;99.90;;;;;;5057151;28;20195;-82
2021/11/03 06:38:00;;;;;;;0.50;0.40;;;5.30;99.90;;;;;;5057883;28;20196;-81
2021/11/03 06:40:29;;;;;;;0.50;0.40;;;5.30;99.90;;;;;;5057622;28;20674;-79
2021/11/03 06:42:57;;;;;;;0.50;0.40;;;5.30;99.90;;;;;;5058444;28;20290;-80
2021/11/03 06:45:26;;;;;;;0.50;0.40;;;5.40;99.90;;;;;;5058053;28;20211;-80
2021/11/03 06:47:53;;;;;;;0.50;0.40;;;5.40;99.90;;;;;;5060390;28;20262;-81
2021/11/03 06:50:24;;;;;;;0.50;0.40;;;5.40;99.90;;;;;;5062646;28;20203;-82
2021/11/03 06:52:54;;;;;;;0.50;0.40;;;5.40;99.90;;;;;;5065251;28;20191;-80
2021/11/03 06:55:21;;;;;;;0.50;0.40;;;5.40;99.90;;;;;;5064714;28;20557;-81
2021/11/03 06:57:48;;;;;;;0.50;0.40;;;5.40;99.90;;;;;;5067710;28;20201;-81
2021/11/03 07:00:22;;;;;;;0.50;0.40;;;5.50;99.90;;;;;;5069279;28;20203;-81
2021/11/03 07:02:49;;;;;;;0.50;0.40;;;5.40;99.90;;;;;;5066451;28;20542;-83
2021/11/03 07:05:15;;;;;;;0.50;0.40;;;5.50;99.90;;;;;;5070642;28;20209;-81
2021/11/03 07:07:42;;;;;;;0.50;0.40;;;5.50;99.90;;;;;;5069397;28;20214;-80
2021/11/03 07:10:12;;;;;;;0.50;0.40;;;5.50;99.90;;;;;;5070530;28;20222;-78
2021/11/03 07:12:39;;;;;;;0.50;0.40;;;5.50;99.90;;;;;;5066914;28;20191;-80
2021/11/03 07:15:07;;;;;;;0.50;0.40;;;5.50;99.90;;;;;;5067217;28;20241;-80
2021/11/03 07:17:35;;;;;;;0.50;0.40;;;5.60;99.90;;;;;;5065369;28;20190;-81
2021/11/03 07:20:02;;;;;;;0.50;0.40;;;5.60;99.90;;;;;;5067091;28;20210;-82
2021/11/03 07:22:29;;;;;;;0.50;0.40;;;5.60;99.90;;;;;;5066567;28;20222;-82
2021/11/03 07:24:56;;;;;;;0.50;0.40;;;5.70;99.90;;;;;;5066707;28;20226;-80
2021/11/03 07:27:23;;;;;;;0.50;0.40;;;5.70;99.90;;;;;;5067016;28;20201;-82
2021/11/03 07:29:50;;;;;;;0.50;0.50;;;5.70;99.90;;;;;;5066443;28;20195;-80
2021/11/03 07:32:18;;;;;;;0.50;0.40;;;5.80;99.90;;;;;;5065364;28;20649;-81
2021/11/03 07:34:46;;;;;;;0.50;0.40;;;5.80;99.90;;;;;;5064453;28;20229;-81
2021/11/03 07:37:13;;;;;;;0.50;0.40;;;5.90;99.90;;;;;;5063993;28;20201;-81
2021/11/03 07:39:40;;;;;;;0.50;0.40;;;6.00;99.90;;;;;;5064377;28;20222;-81
2021/11/03 07:42:07;;;;;;;0.50;0.40;;;6.00;99.90;;;;;;5063012;28;20194;-81
2021/11/03 07:44:34;;;;;;;0.50;0.40;;;6.00;99.90;;;;;;5066165;28;20932;-80
2021/11/03 07:47:01;;;;;;;0.50;0.40;;;6.00;99.90;;;;;;5066158;28;20223;-80
2021/11/03 07:49:28;;;;;;;0.50;0.40;;;6.00;99.90;;;;;;5065620;28;20278;-81
2021/11/03 07:51:56;;;;;;;0.50;0.40;;;6.00;99.90;;;;;;5064876;28;20290;-80
2021/11/03 07:54:24;;;;;;;0.50;0.40;;;6.10;99.90;;;;;;5065270;28;20219;-80
2021/11/03 07:56:51;;;;;;;0.50;0.40;;;6.20;99.90;;;;;;5064527;28;20258;-82
2021/11/03 07:59:21;;;;;;;0.50;0.40;;;6.30;99.90;;;;;;5064406;28;20222;-80
2021/11/03 08:01:48;;;;;;;0.50;0.40;;;6.40;99.90;;;;;;5063003;28;20226;-80
2021/11/03 08:04:15;;;;;;;0.50;0.40;;;6.40;99.90;;;;;;5062239;28;20277;-81
2021/11/03 08:06:42;;;;;;;0.50;0.40;;;6.40;99.90;;;;;;5062926;28;20333;-82
2021/11/03 08:09:10;;;;;;;0.50;0.40;;;6.40;99.90;;;;;;5064252;28;20245;-80
2021/11/03 08:11:46;;;;;;;0.50;0.40;;;6.50;99.90;;;;;;5062852;28;20195;-81
2021/11/03 08:14:13;;;;;;;0.50;0.40;;;6.60;99.90;;;;;;5063369;28;20295;-81
2021/11/03 08:16:47;;;;;;;0.50;0.40;;;6.70;99.90;;;;;;5063564;28;20670;-80
2021/11/03 08:19:14;;;;;;;0.50;0.40;;;6.70;99.90;;;;;;5062592;28;20275;-81
2021/11/03 08:21:41;;;;;;;0.50;0.40;;;6.70;99.90;;;;;;5042565;28;20282;-81
2021/11/03 08:24:08;;;;;;;0.50;0.40;;;6.80;99.90;;;;;;5042093;28;20301;-81
2021/11/03 08:26:36;;;;;;;0.50;0.40;;;6.80;99.90;;;;;;5058822;28;20223;-82
2021/11/03 08:29:03;;;;;;;0.50;0.40;;;6.80;99.90;;;;;;5057826;28;20199;-82
2021/11/03 08:31:31;;;;;;;0.50;0.40;;;6.80;99.90;;;;;;5059387;28;20263;-81
2021/11/03 08:33:58;;;;;;;0.50;0.40;;;6.90;99.90;;;;;;5057718;28;20242;-80
2021/11/03 08:36:25;;;;;;;0.50;0.40;;;6.90;99.90;;;;;;5058847;28;20229;-81
2021/11/03 08:38:53;;;;;;;0.50;0.40;;;7.00;99.90;;;;;;5058890;28;20249;-79
2021/11/03 08:41:21;;;;;;;0.50;0.40;;;7.00;99.90;;;;;;5054971;28;20202;-80
2021/11/03 08:43:50;;;;;;;0.50;0.40;;;7.00;99.90;;;;;;5045231;28;20281;-82
2021/11/03 08:46:17;;;;;;;0.50;0.40;;;7.00;99.90;;;;;;5057363;28;20199;-82
2021/11/03 08:48:44;;;;;;;0.50;0.40;;;7.10;99.90;;;;;;5057188;28;20206;-80
2021/11/03 08:51:11;;;;;;;0.50;0.40;;;7.10;99.90;;;;;;5057608;28;20219;-81
2021/11/03 08:53:38;;;;;;;0.50;0.40;;;7.10;99.90;;;;;;5058553;28;20298;-82
2021/11/03 08:56:06;;;;;;;0.50;0.40;;;7.20;99.90;;;;;;5058804;28;20220;-83
2021/11/03 08:58:32;;;;;;;0.50;0.40;;;7.30;99.90;;;;;;5060544;28;20202;-82
2021/11/03 09:01:01;;;;;;;0.50;0.40;;;7.40;99.90;;;;;;5058922;28;20260;-84
2021/11/03 09:03:28;;;;;;;0.50;0.40;;;7.50;99.90;;;;;;5058117;28;20281;-82
2021/11/03 09:05:55;;;;;;;0.50;0.40;;;7.50;99.90;;;;;;5059809;28;20227;-81
2021/11/03 09:08:23;;;;;;;0.50;0.40;;;7.50;99.90;;;;;;5061791;28;20189;-83
2021/11/03 09:10:52;;;;;;;0.50;0.40;;;7.60;99.90;;;;;;5058924;28;20199;-82
2021/11/03 09:13:22;;;;;;;0.50;0.40;;;7.60;99.90;;;;;;5059812;28;20243;-83
2021/11/03 09:15:49;;;;;;;0.50;0.40;;;7.60;99.90;;;;;;5059214;28;20199;-81
2021/11/03 09:18:18;;;;;;;0.50;0.40;;;7.70;99.90;;;;;;5058205;28;20208;-82
2021/11/03 09:20:48;;;;;;;0.50;0.40;;;7.70;99.90;;;;;;5060020;28;20195;-82
2021/11/03 09:23:16;;;;;;;0.50;0.40;;;7.80;99.90;;;;;;5058313;28;20240;-81
2021/11/03 09:25:44;;;;;;;1.98;1.88;;;7.90;99.90;;;;;;5058487;28;20290;-83
2021/11/03 09:28:11;;;;;;;0.50;0.40;;;8.00;99.90;;;;;;5057316;28;20250;-82
2021/11/03 09:30:39;;;;;;;0.50;0.40;;;8.00;99.90;;;;;;5059125;28;20201;-84
2021/11/03 09:33:09;;;;;;;0.50;0.40;;;8.00;99.90;;;;;;5060077;28;20195;-83
2021/11/03 09:35:42;;;;;;;0.50;0.40;;;8.10;99.90;;;;;;5060360;28;20278;-81
2021/11/03 09:38:11;;;;;;;0.50;0.40;;;8.10;99.90;;;;;;5060889;28;20195;-82
2021/11/03 09:40:49;;;;;;;0.50;0.40;;;8.20;99.90;;;;;;5060064;28;20286;-83
2021/11/03 09:43:26;;;;;;;0.50;0.40;;;8.20;99.90;;;;;;5059619;28;20210;-83
2021/11/03 09:45:53;;;;;;;0.50;0.40;;;8.20;99.90;;;;;;5059711;28;20557;-82
2021/11/03 09:48:26;;;;;;;0.50;0.40;;;8.20;99.90;;;;;;5060177;28;20258;-83
2021/11/03 09:50:57;;;;;;;0.50;0.40;;;8.20;99.90;;;;;;5059574;28;20702;-83
2021/11/03 09:53:29;;;;;;;0.50;0.40;;;8.30;99.90;;;;;;5058858;28;20219;-83
2021/11/03 09:55:57;;;;;;;0.50;0.40;;;8.30;99.90;;;;;;5058794;28;20206;-84
2021/11/03 09:58:53;;;;;;;0.50;0.40;;;8.40;99.90;;;;;;5059592;28;20206;-85
2021/11/03 10:01:26;;;;;;;0.50;0.40;;;8.50;99.90;;;;;;5048691;28;20203;-83
2021/11/03 10:04:08;;;;;;;0.50;0.40;;;8.60;99.90;;;;;;5058292;28;20239;-83
2021/11/03 10:06:43;;;;;;;0.50;0.40;;;8.60;99.90;;;;;;5085659;22;20447;-75
2021/11/03 10:09:10;;;;;;;0.50;0.40;;;8.50;99.90;;;;;;5071213;28;20195;-70
2021/11/03 10:11:39;;;;;;;0.50;0.40;;;8.60;99.90;;;;;;5070981;28;20233;-77
2021/11/03 10:14:07;;;;;;;0.50;0.40;;;8.70;99.90;;;;;;5071438;28;20664;-75
2021/11/03 10:16:37;;;;;;;0.50;0.40;;;8.70;99.90;;;;;;5070791;28;20217;-74
2021/11/03 10:19:20;;;;;;;0.50;0.40;;;8.80;99.90;;;;;;5070943;28;20205;-74
2021/11/03 10:21:51;;;;;;;0.50;0.40;;;8.90;99.90;;;;;;5071358;28;20245;-75
2021/11/03 10:24:39;;;;;;;0.50;0.40;;;8.80;99.90;;;;;;5071143;28;20207;-72
2021/11/03 10:27:19;;;;;;;0.90;0.70;;;8.80;99.90;;;;;;5070986;28;20286;-75
2021/11/03 10:29:49;;;;;;;0.50;0.40;;;8.80;99.90;;;;;;5071623;28;20206;-74
2021/11/03 10:32:29;;;;;;;0.50;0.40;;;8.80;99.90;;;;;;5070728;28;20676;-75
2021/11/03 10:35:14;;;;;;;0.50;0.40;;;9.00;99.90;;;;;;5071580;28;20202;-76
2021/11/03 10:37:47;;;;;;;0.50;0.40;;;9.10;99.90;;;;;;5071055;28;20548;-76
2021/11/03 10:40:25;;;;;;;0.75;0.75;;;9.10;99.90;;;;;;5071135;28;20204;-76
2021/11/03 10:42:55;;;;;;;0.50;0.40;;;9.10;99.90;;;;;;5071326;28;20254;-77
2021/11/03 10:45:27;;;;;;;0.50;0.40;;;9.20;99.90;;;;;;5071211;28;20657;-76
2021/11/03 10:47:56;;;;;;;0.50;0.40;;;9.30;99.90;;;;;;5070861;28;20204;-76
2021/11/03 10:50:28;;;;;;;0.50;0.40;;;9.40;99.90;;;;;;5070797;28;20209;-76
2021/11/03 10:53:00;;;;;;;0.60;0.60;;;9.40;99.90;;;;;;5052830;28;20202;-76
2021/11/03 10:55:30;;;;;;;0.50;0.40;;;9.50;99.90;;;;;;5070888;28;20216;-77
2021/11/03 10:58:06;;;;;;;0.50;0.40;;;9.60;99.90;;;;;;5071168;28;20195;-75
2021/11/03 11:00:36;;;;;;;0.50;0.40;;;9.60;99.90;;;;;;5070375;28;20196;-76
2021/11/03 11:03:06;;;;;;;0.50;0.40;;;9.60;99.90;;;;;;5070536;28;20265;-75
2021/11/03 11:05:36;;;;;;;0.50;0.40;;;9.60;99.90;;;;;;5070655;28;20235;-77
2021/11/03 11:08:16;;;;;;;0.50;0.50;;;9.50;99.90;;;;;;5070591;28;20710;-75
2021/11/03 11:10:47;;;;;;;0.50;0.40;;;9.30;99.90;;;;;;5070885;28;20182;-75
2021/11/03 11:13:19;;;;;;;1.95;1.85;;;9.20;99.90;;;;;;5071069;28;20182;-74
2021/11/03 11:15:56;;;;;;;0.50;0.50;;;9.20;99.90;;;;;;5071537;28;20215;-77
2021/11/03 11:18:43;;;;;;;0.50;0.40;;;9.10;99.90;;;;;;5075050;28;20179;-75
2021/11/03 11:21:17;;;;;;;0.50;0.40;;;9.10;99.90;;;;;;5074318;28;20240;-76
2021/11/03 11:23:51;;;;;;;0.50;0.40;;;9.00;99.90;;;;;;5074478;28;20203;-73
2021/11/03 11:26:24;;;;;;;0.50;0.40;;;9.00;99.90;;;;;;5074449;28;20215;-74
2021/11/03 11:28:56;;;;;;;0.50;0.40;;;9.00;99.90;;;;;;5074650;28;20180;-76
2021/11/03 11:31:32;;;;;;;0.50;0.40;;;8.90;99.90;;;;;;5074293;28;20231;-76
2021/11/03 11:34:04;;;;;;;0.52;0.52;;;9.00;99.90;;;;;;5074389;28;20199;-74
2021/11/03 11:36:38;;;;;;;0.50;0.40;;;8.90;99.90;;;;;;5074271;28;20211;-74
2021/11/03 11:39:21;;;;;;;1.10;1.10;;;8.90;99.90;;;;;;5074628;28;20201;-74
2021/11/03 11:42:05;;;;;;;0.50;0.40;;;9.00;99.90;;;;;;5074243;28;20200;-77
2021/11/03 11:44:34;;;;;;;0.50;0.40;;;9.00;99.90;;;;;;5074377;28;20264;-77
2021/11/03 11:47:06;;;;;;;0.50;0.40;;;9.00;99.90;;;;;;5073958;28;20219;-76
2021/11/03 11:49:35;;;;;;;0.50;0.40;;;9.00;99.90;;;;;;5074611;28;20249;-76
2021/11/03 11:52:12;;;;;;;0.50;0.40;;;9.00;99.90;;;;;;5073963;28;20201;-76
2021/11/03 11:55:02;;;;;;;0.50;0.40;;;9.00;99.90;;;;;;5073804;28;20636;-76
2021/11/03 11:57:29;;;;;;;0.50;0.40;;;8.80;99.90;;;;;;5074043;28;20684;-76
2021/11/03 12:00:10;;;;;;;0.50;0.40;;;8.80;99.90;;;;;;5073887;28;20200;-76
2021/11/03 12:03:01;;;;;;;4.20;3.33;;;8.80;99.90;;;;;;5074309;28;20209;-77
2021/11/03 12:05:45;;;;;;;2.72;2.63;;;8.90;99.90;;;;;;5073939;28;20599;-76
2021/11/03 12:08:48;;;;;;;1.73;1.63;;;8.80;99.90;;;;;;5073786;28;20303;-76
2021/11/03 12:11:22;;;;;;;0.50;0.40;;;8.50;99.90;;;;;;5073403;28;20218;-76
2021/11/03 12:14:36;;;;;;;0.50;0.40;;;8.50;99.90;;;;;;5073936;28;20180;-77
2021/11/03 12:17:44;;;;;;;0.50;0.40;;;8.50;99.90;;;;;;5073174;28;20562;-76
2021/11/03 12:20:54;;;;;;;0.50;0.40;;;8.50;99.90;;;;;;5073471;28;20286;-73
2021/11/03 12:23:48;;;;;;;0.50;0.40;;;8.60;99.90;;;;;;5053839;28;20282;-77
2021/11/03 12:26:41;;;;;;;0.50;0.40;;;8.60;99.90;;;;;;5073759;28;20220;-75
2021/11/03 12:29:34;;;;;;;0.50;0.40;;;8.60;99.90;;;;;;5068343;28;20191;-76
2021/11/03 12:32:03;;;;;;;0.50;0.40;;;8.60;99.90;;;;;;5072874;28;20665;-76
2021/11/03 12:34:33;;;;;;;0.50;0.40;;;8.50;99.90;;;;;;5073070;28;20198;-74
2021/11/03 12:37:28;;;;;;;0.50;0.40;;;8.50;99.90;;;;;;5072968;28;20212;-76
2021/11/03 12:40:28;;;;;;;0.50;0.40;;;8.50;99.90;;;;;;5072898;28;20203;-77
2021/11/03 12:43:04;;;;;;;0.50;0.40;;;8.40;99.90;;;;;;5073125;28;20227;-77
2021/11/03 12:45:35;;;;;;;0.50;0.40;;;8.30;99.90;;;;;;5072639;28;20220;-77
2021/11/03 12:48:03;;;;;;;0.50;0.40;;;8.10;99.90;;;;;;5072855;28;20218;-77
2021/11/03 12:50:34;;;;;;;0.50;0.40;;;8.20;99.90;;;;;;5072618;28;20261;-75
2021/11/03 12:53:10;;;;;;;2.45;2.28;;;8.10;99.90;;;;;;5073265;28;20212;-77
2021/11/03 12:55:45;;;;;;;0.50;0.40;;;8.10;99.90;;;;;;5072735;28;20262;-77
2021/11/03 12:58:30;;;;;;;0.50;0.40;;;8.10;99.90;;;;;;5073212;28;20182;-76
2021/11/03 13:00:58;;;;;;;0.50;0.40;;;8.00;99.90;;;;;;5072655;28;20202;-77
2021/11/03 13:03:29;;;;;;;0.50;0.40;;;8.00;99.90;;;;;;5072953;28;20213;-77
2021/11/03 13:05:56;;;;;;;0.50;0.40;;;7.90;99.90;;;;;;5072788;28;20223;-77
2021/11/03 13:08:25;;;;;;;0.50;0.40;;;7.90;99.90;;;;;;5072640;28;20223;-77
2021/11/03 13:11:07;;;;;;;0.50;0.40;;;7.90;99.90;;;;;;5072327;28;20706;-77
2021/11/03 13:13:36;;;;;;;0.50;0.40;;;8.00;99.90;;;;;;5072473;28;20372;-77
2021/11/03 13:16:06;;;;;;;0.50;0.40;;;8.00;99.90;;;;;;5072147;28;20217;-77